Time;durP1;ratioP1;P1;durP2;ratioP2;P2;SDS_P1;SDS_P2;PMS_P1;PMS_P2;Temp;Humidity;BMP_temperature;BMP_pressure;BME280_temperature;BME280_humidity;BME280_pressure;Samples;Min_cycle;Max_cycle;Signal;HPM_P1;HPM_P2
2021/07/02 00:01:18;;;;;;;;;;;;;;;18.66;64.58;97923.09;1750604;81;20226;-87
2021/07/02 00:03:44;;;;;;;;;;;;;;;18.66;64.63;97920.45;1746624;81;20906;-87
2021/07/02 00:06:09;;;;;;;;;;;;;;;18.65;64.69;97920.14;1743187;81;20812;-87
2021/07/02 00:08:35;;;;;;;;;;;;;;;18.69;64.77;97914.82;1743009;81;20959;-87
2021/07/02 00:11:02;;;;;;;;;;;;;;;18.72;64.87;97918.94;1746421;81;20246;-87
2021/07/02 00:13:27;;;;;;;;;;;;;;;18.73;64.95;97917.45;1748281;81;20244;-87
2021/07/02 00:15:53;;;;;;;;;;;;;;;18.67;65.05;97920.78;1747858;81;20246;-87
2021/07/02 00:18:19;;;;;;;;;;;;;;;18.61;65.12;97920.63;1740683;81;20314;-87
2021/07/02 00:20:45;;;;;;;;;;;;;;;18.57;65.22;97917.50;1745366;81;21718;-87
2021/07/02 00:23:11;;;;;;;;;;;;;;;18.61;65.30;97914.00;1747842;81;20269;-87
2021/07/02 00:25:38;;;;;;;;;;;;;;;18.70;65.37;97914.33;1746761;81;20289;-87
2021/07/02 00:28:07;;;;;;;;;;;;;;;18.75;65.44;97912.81;1743742;81;24824;-87
2021/07/02 00:30:33;;;;;;;;;;;;;;;18.68;65.51;97915.81;1745144;81;22060;-87
2021/07/02 00:32:59;;;;;;;;;;;;;;;18.56;65.58;97907.06;1738763;81;26029;-87
2021/07/02 00:35:25;;;;;;;;;;;;;;;18.49;65.63;97910.05;1711994;81;24477;-87
2021/07/02 00:37:51;;;;;;;;;;;;;;;18.42;65.74;97913.87;1744126;81;20228;-87
2021/07/02 00:40:17;;;;;;;;;;;;;;;18.38;65.85;97913.89;1746136;81;24798;-87
2021/07/02 00:42:43;;;;;;;;;;;;;;;18.33;65.97;97912.21;1745004;81;20253;-87
2021/07/02 00:45:09;;;;;;;;;;;;;;;18.35;66.06;97912.87;1743771;81;21836;-87
2021/07/02 00:47:35;;;;;;;;;;;;;;;18.31;66.18;97908.92;1746413;81;25354;-87
2021/07/02 00:50:04;;;;;;;;;;;;;;;18.30;66.27;97908.09;1746216;81;20818;-87
2021/07/02 00:52:30;;;;;;;;;;;;;;;18.37;66.39;97909.58;1754269;81;24777;-87
2021/07/02 00:54:56;;;;;;;;;;;;;;;18.45;66.48;97900.77;1755143;81;20246;-87
2021/07/02 00:57:23;;;;;;;;;;;;;;;18.51;66.52;97903.56;1753560;81;21808;-87
2021/07/02 00:59:49;;;;;;;;;;;;;;;18.53;66.52;97898.94;1754004;81;25083;-87
2021/07/02 01:02:16;;;;;;;;;;;;;;;18.40;66.55;97907.90;1752799;81;20314;-87
2021/07/02 01:04:44;;;;;;;;;;;;;;;18.28;66.60;97910.56;1756730;81;24956;-87
2021/07/02 01:07:15;;;;;;;;;;;;;;;18.16;66.66;97906.14;1721208;81;21881;-87
2021/07/02 01:09:41;;;;;;;;;;;;;;;18.13;66.72;97909.59;1748149;81;26806;-87
2021/07/02 01:12:08;;;;;;;;;;;;;;;18.13;66.82;97912.25;1750623;81;25201;-87
2021/07/02 01:14:35;;;;;;;;;;;;;;;18.18;66.90;97916.05;1754224;81;20227;-87
2021/07/02 01:17:01;;;;;;;;;;;;;;;18.24;66.97;97916.70;1749424;81;24741;-87
2021/07/02 01:19:27;;;;;;;;;;;;;;;18.29;67.03;97921.50;1753124;81;22828;-87
2021/07/02 01:21:56;;;;;;;;;;;;;;;18.34;67.07;97915.19;1757942;81;21191;-87
2021/07/02 01:24:22;;;;;;;;;;;;;;;18.42;67.11;97919.17;1752134;81;24501;-87
2021/07/02 01:26:50;;;;;;;;;;;;;;;18.45;67.13;97910.87;1752136;81;20228;-87
2021/07/02 01:29:16;;;;;;;;;;;;;;;18.48;67.16;97909.22;1751888;81;25392;-87
2021/07/02 01:31:42;;;;;;;;;;;;;;;18.51;67.19;97908.04;1751458;81;22546;-87
2021/07/02 01:34:08;;;;;;;;;;;;;;;18.51;67.20;97906.22;1750097;81;26690;-87
2021/07/02 01:36:34;;;;;;;;;;;;;;;18.51;67.20;97906.22;1750050;81;24483;-87
2021/07/02 01:39:00;;;;;;;;;;;;;;;18.49;67.22;97901.61;1759921;81;20870;-87
2021/07/02 01:41:26;;;;;;;;;;;;;;;18.46;67.23;97901.92;1756081;81;20226;-87
2021/07/02 01:43:52;;;;;;;;;;;;;;;18.41;67.26;97900.28;1757403;81;20306;-87
2021/07/02 01:46:17;;;;;;;;;;;;;;;18.34;67.26;97903.27;1747499;81;21763;-87
2021/07/02 01:48:43;;;;;;;;;;;;;;;18.27;67.30;97897.81;1754208;81;20311;-87
2021/07/02 01:51:09;;;;;;;;;;;;;;;18.20;67.34;97896.03;1747614;81;20172;-87
2021/07/02 01:53:36;;;;;;;;;;;;;;;18.14;67.37;97893.55;1748722;81;20840;-87
2021/07/02 01:56:02;;;;;;;;;;;;;;;18.07;67.41;97895.20;1747353;81;22154;-87
2021/07/02 01:58:28;;;;;;;;;;;;;;;18.05;67.45;97894.56;1745623;81;26035;-87
2021/07/02 02:00:54;;;;;;;;;;;;;;;18.03;67.52;97889.92;1743480;81;20241;-87
2021/07/02 02:03:23;;;;;;;;;;;;;;;18.03;67.57;97890.41;1746455;81;20556;-87
2021/07/02 02:05:49;;;;;;;;;;;;;;;18.03;67.62;97889.09;1748437;81;24797;-87
2021/07/02 02:08:15;;;;;;;;;;;;;;;18.02;67.70;97891.41;1744731;81;22736;-87
2021/07/02 02:10:41;;;;;;;;;;;;;;;18.02;67.74;97897.53;1744147;81;26088;-87
2021/07/02 02:13:07;;;;;;;;;;;;;;;18.03;67.80;97895.71;1745687;81;23902;-87
2021/07/02 02:15:33;;;;;;;;;;;;;;;18.02;67.85;97892.73;1746396;81;20269;-87
2021/07/02 02:18:00;;;;;;;;;;;;;;;18.00;67.93;97892.09;1748101;81;20904;-87
2021/07/02 02:20:26;;;;;;;;;;;;;;;17.97;67.98;97892.73;1744670;81;22785;-87
2021/07/02 02:22:52;;;;;;;;;;;;;;;17.99;68.03;97900.52;1746103;81;20950;-87
2021/07/02 02:25:18;;;;;;;;;;;;;;;17.98;68.08;97902.34;1714374;81;20317;-87
2021/07/02 02:27:50;;;;;;;;;;;;;;;17.98;68.15;97898.86;1746302;81;20167;-87
2021/07/02 02:30:13;;;;;;;;;;;;;;;17.98;68.22;97897.54;1745857;81;24964;-87
2021/07/02 02:32:40;;;;;;;;;;;;;;;17.97;68.29;97892.73;1715629;81;21842;-87
2021/07/02 02:35:06;;;;;;;;;;;;;;;17.97;68.36;97898.03;1745646;81;26062;-87
2021/07/02 02:37:32;;;;;;;;;;;;;;;17.96;68.42;97889.75;1743461;81;24013;-87
2021/07/02 02:39:59;;;;;;;;;;;;;;;17.94;68.47;97889.61;1750296;81;20380;-87
2021/07/02 02:42:25;;;;;;;;;;;;;;;17.93;68.51;97885.30;1749258;81;25497;-87
2021/07/02 02:44:51;;;;;;;;;;;;;;;17.91;68.59;97885.45;1747327;81;20291;-87
2021/07/02 02:47:16;;;;;;;;;;;;;;;17.91;68.66;97896.05;1746328;81;21040;-87
2021/07/02 02:49:42;;;;;;;;;;;;;;;17.89;68.69;97888.76;1744498;81;20257;-87
2021/07/02 02:52:09;;;;;;;;;;;;;;;17.90;68.75;97886.45;1751330;81;20278;-87
2021/07/02 02:54:34;;;;;;;;;;;;;;;17.89;68.81;97886.63;1751860;81;20705;-87
2021/07/02 02:57:04;;;;;;;;;;;;;;;17.87;68.89;97891.26;1754489;81;21949;-87
2021/07/02 02:59:31;;;;;;;;;;;;;;;17.84;68.97;97891.08;1756283;81;26881;-87
2021/07/02 03:01:57;;;;;;;;;;;;;;;17.85;69.01;97892.73;1755749;81;24452;-87
2021/07/02 03:04:23;;;;;;;;;;;;;;;17.86;69.09;97891.75;1754143;81;20334;-87
2021/07/02 03:06:49;;;;;;;;;;;;;;;17.87;69.14;97891.26;1750987;81;24759;-87
2021/07/02 03:09:16;;;;;;;;;;;;;;;17.87;69.22;97899.20;1719661;81;21863;-87
2021/07/02 03:11:44;;;;;;;;;;;;;;;17.84;69.26;97902.16;1761978;80;26861;-87
2021/07/02 03:14:09;;;;;;;;;;;;;;;17.81;69.33;97899.86;1768936;80;24501;-87
2021/07/02 03:16:35;;;;;;;;;;;;;;;17.78;69.39;97898.35;1764759;80;20275;-87
2021/07/02 03:19:01;;;;;;;;;;;;;;;17.77;69.44;97900.70;1729997;82;20316;-87
2021/07/02 03:21:27;;;;;;;;;;;;;;;17.77;69.53;97903.34;1769632;80;20216;-87
2021/07/02 03:23:53;;;;;;;;;;;;;;;17.74;69.57;97899.69;1753641;81;21004;-87
2021/07/02 03:26:19;;;;;;;;;;;;;;;17.75;69.65;97906.64;1743583;81;25298;-87
2021/07/02 03:28:45;;;;;;;;;;;;;;;17.73;69.76;97909.94;1749992;81;20284;-87
2021/07/02 03:31:11;;;;;;;;;;;;;;;17.74;69.86;97910.77;1740660;81;20231;-87
2021/07/02 03:33:37;;;;;;;;;;;;;;;17.76;69.95;97914.09;1739445;81;20305;-87
2021/07/02 03:36:03;;;;;;;;;;;;;;;17.76;70.07;97914.91;1746076;81;21837;-87
2021/07/02 03:38:29;;;;;;;;;;;;;;;17.78;70.17;97915.55;1745557;81;20257;-87
2021/07/02 03:40:54;;;;;;;;;;;;;;;17.78;70.28;97915.55;1750898;81;20241;-87
2021/07/02 03:43:20;;;;;;;;;;;;;;;17.76;70.40;97912.27;1747536;81;20322;-87
2021/07/02 03:45:46;;;;;;;;;;;;;;;17.76;70.49;97915.41;1745343;81;22086;-87
2021/07/02 03:48:12;;;;;;;;;;;;;;;17.74;70.62;97911.59;1752210;81;21740;-87
2021/07/02 03:50:38;;;;;;;;;;;;;;;17.74;70.74;97911.59;1743076;81;20379;-87
2021/07/02 03:53:04;;;;;;;;;;;;;;;17.73;70.88;97915.75;1734981;82;20262;-87
2021/07/02 03:55:30;;;;;;;;;;;;;;;17.72;71.00;97918.89;1740498;82;20245;-87
2021/07/02 03:57:56;;;;;;;;;;;;;;;17.73;71.13;97920.52;1737953;82;21404;-87
2021/07/02 04:00:22;;;;;;;;;;;;;;;17.74;71.26;97924.00;1740406;82;21050;-87
2021/07/02 04:02:48;;;;;;;;;;;;;;;17.77;71.38;97930.30;1722158;82;20905;-87
2021/07/02 04:05:15;;;;;;;;;;;;;;;17.79;71.49;97930.45;1742740;82;32454;-87
2021/07/02 04:07:41;;;;;;;;;;;;;;;17.83;71.58;97930.48;1738235;82;20207;-87
2021/07/02 04:10:07;;;;;;;;;;;;;;;17.89;71.67;97934.28;1740634;82;22095;-87
2021/07/02 04:12:33;;;;;;;;;;;;;;;17.96;71.77;97939.23;1742472;82;25933;-87
2021/07/02 04:14:59;;;;;;;;;;;;;;;17.98;71.84;97934.11;1744462;82;20844;-87
2021/07/02 04:17:25;;;;;;;;;;;;;;;18.02;71.90;97933.77;1741633;82;20908;-87
2021/07/02 04:19:51;;;;;;;;;;;;;;;18.02;71.96;97937.74;1739300;82;20232;-87
2021/07/02 04:22:16;;;;;;;;;;;;;;;18.04;72.02;97939.25;1744535;82;20306;-87
2021/07/02 04:24:42;;;;;;;;;;;;;;;18.08;72.10;97935.76;1743354;81;21762;-87
2021/07/02 04:27:08;;;;;;;;;;;;;;;18.09;72.20;97933.45;1737681;82;20849;-87
2021/07/02 04:29:34;;;;;;;;;;;;;;;18.11;72.27;97934.91;1735316;81;20891;-87
2021/07/02 04:32:00;;;;;;;;;;;;;;;18.14;72.33;97933.28;1739244;82;24806;-87
2021/07/02 04:34:26;;;;;;;;;;;;;;;18.15;72.41;97938.08;1736671;82;20369;-87
2021/07/02 04:36:52;;;;;;;;;;;;;;;18.17;72.46;97937.39;1744939;82;21086;-87
2021/07/02 04:39:19;;;;;;;;;;;;;;;18.15;72.53;97939.41;1735414;82;20251;-87
2021/07/02 04:41:45;;;;;;;;;;;;;;;18.13;72.59;97938.23;1737229;81;20283;-87
2021/07/02 04:44:11;;;;;;;;;;;;;;;18.17;72.64;97942.69;1716406;82;24742;-87
2021/07/02 04:46:37;;;;;;;;;;;;;;;18.20;72.71;97935.75;1738541;82;20425;-87
2021/07/02 04:49:03;;;;;;;;;;;;;;;18.24;72.74;97945.02;1744228;82;21007;-88
2021/07/02 04:51:32;;;;;;;;;;;;;;;18.15;72.79;97944.20;1737443;82;25305;-88
2021/07/02 04:53:57;;;;;;;;;;;;;;;18.04;72.88;97943.22;1743702;82;20318;-88
2021/07/02 04:56:23;;;;;;;;;;;;;;;17.96;72.97;97946.68;1738341;82;20779;-88
2021/07/02 04:58:54;;;;;;;;;;;;;;;18.03;73.03;97946.86;1737653;82;20869;-88
2021/07/02 05:01:17;;;;;;;;;;;;;;;18.13;73.11;97949.33;1739355;82;26178;-87
2021/07/02 05:03:43;;;;;;;;;;;;;;;18.12;73.21;97952.96;1736120;82;25214;-87
2021/07/02 05:06:09;;;;;;;;;;;;;;;18.15;73.31;97951.32;1741950;82;20330;-88
2021/07/02 05:08:41;;;;;;;;;;;;;;;18.11;73.39;97955.30;1737225;82;20823;-87
2021/07/02 05:11:04;;;;;;;;;;;;;;;18.12;73.46;97948.98;1738505;82;22097;-87
2021/07/02 05:13:32;;;;;;;;;;;;;;;18.17;73.54;97952.80;1740717;82;21694;-88
2021/07/02 05:15:58;;;;;;;;;;;;;;;18.12;73.64;97952.47;1714723;82;24308;-88
2021/07/02 05:18:24;;;;;;;;;;;;;;;18.05;73.69;97951.99;1742300;82;20248;-87
2021/07/02 05:20:53;;;;;;;;;;;;;;;18.02;73.81;97958.92;1741951;82;24803;-87
2021/07/02 05:23:18;;;;;;;;;;;;;;;17.95;73.93;97963.55;1742735;82;20259;-87
2021/07/02 05:25:44;;;;;;;;;;;;;;;17.93;74.06;97964.23;1737971;82;21020;-87
2021/07/02 05:28:10;;;;;;;;;;;;;;;17.95;74.17;97968.84;1738386;82;20338;-87
2021/07/02 05:30:36;;;;;;;;;;;;;;;18.01;74.23;97971.33;1742477;82;20238;-88
2021/07/02 05:33:02;;;;;;;;;;;;;;;18.10;74.29;97966.89;1740272;82;20266;-87
2021/07/02 05:35:28;;;;;;;;;;;;;;;18.20;74.35;97968.38;1745337;82;20321;-88
2021/07/02 05:37:54;;;;;;;;;;;;;;;18.23;74.40;97969.35;1735752;82;21770;-87
2021/07/02 05:40:20;;;;;;;;;;;;;;;18.21;74.44;97965.23;1744946;82;20305;-87
2021/07/02 05:42:46;;;;;;;;;;;;;;;18.30;74.52;97969.52;1740778;82;20253;-87
2021/07/02 05:45:12;;;;;;;;;;;;;;;18.37;74.59;97963.89;1739670;82;24738;-87
2021/07/02 05:47:45;;;;;;;;;;;;;;;18.39;74.59;97963.20;1743050;82;20257;-87
2021/07/02 05:50:08;;;;;;;;;;;;;;;18.45;74.62;97967.01;1739132;82;25976;-87
2021/07/02 05:52:35;;;;;;;;;;;;;;;18.46;74.66;97968.17;1732971;80;24482;-88
2021/07/02 05:55:02;;;;;;;;;;;;;;;18.43;74.70;97975.15;1729585;82;20220;-87
2021/07/02 05:57:28;;;;;;;;;;;;;;;18.44;74.76;97982.08;1726173;82;24807;-87
2021/07/02 05:59:54;;;;;;;;;;;;;;;18.37;74.78;97980.62;1731187;82;20211;-87
2021/07/02 06:02:20;;;;;;;;;;;;;;;18.27;74.81;97983.11;1730014;82;21691;-87
2021/07/02 06:04:45;;;;;;;;;;;;;;;18.15;74.88;97978.64;1729390;82;20336;-87
2021/07/02 06:07:12;;;;;;;;;;;;;;;18.15;74.94;97975.98;1732908;82;20486;-87
2021/07/02 06:09:38;;;;;;;;;;;;;;;18.18;75.04;97980.11;1732020;82;20231;-87
2021/07/02 06:12:04;;;;;;;;;;;;;;;18.17;75.14;97980.61;1727176;82;20231;-87
2021/07/02 06:14:32;;;;;;;;;;;;;;;18.16;75.19;97986.09;1729247;82;25982;-87
2021/07/02 06:16:59;;;;;;;;;;;;;;;18.10;75.26;97988.08;1731161;82;24452;-87
2021/07/02 06:19:24;;;;;;;;;;;;;;;18.02;75.29;97989.37;1728017;82;20224;-87
2021/07/02 06:21:50;;;;;;;;;;;;;;;18.03;75.36;97989.22;1732060;82;20563;-87
2021/07/02 06:24:16;;;;;;;;;;;;;;;18.04;75.45;97990.05;1731924;82;20257;-87
2021/07/02 06:26:42;;;;;;;;;;;;;;;18.17;75.54;97990.37;1733011;82;20885;-87
2021/07/02 06:29:14;;;;;;;;;;;;;;;18.19;75.60;97991.05;1732873;82;20845;-87
2021/07/02 06:31:39;;;;;;;;;;;;;;;18.25;75.67;97989.06;1730380;82;20203;-88
2021/07/02 06:34:05;;;;;;;;;;;;;;;18.32;75.74;97992.22;1731875;82;20864;-88
2021/07/02 06:36:31;;;;;;;;;;;;;;;18.34;75.78;97989.37;1729797;82;20239;-87
2021/07/02 06:38:57;;;;;;;;;;;;;;;18.38;75.84;97993.38;1729761;82;20964;-88
2021/07/02 06:41:23;;;;;;;;;;;;;;;18.35;75.91;97991.03;1728078;82;20282;-88
2021/07/02 06:43:49;;;;;;;;;;;;;;;18.33;75.99;97991.19;1729075;82;20313;-88
2021/07/02 06:46:15;;;;;;;;;;;;;;;18.46;76.03;97994.67;1729927;82;25604;-87
2021/07/02 06:48:41;;;;;;;;;;;;;;;18.56;76.11;97992.70;1730423;82;20368;-88
2021/07/02 06:51:07;;;;;;;;;;;;;;;18.72;76.13;97994.48;1734484;81;21900;-88
2021/07/02 06:53:33;;;;;;;;;;;;;;;18.83;76.19;97995.95;1749808;81;20266;-87
2021/07/02 06:55:59;;;;;;;;;;;;;;;18.92;76.20;98000.27;1748868;81;20176;-88
2021/07/02 06:58:25;;;;;;;;;;;;;;;18.99;76.17;98000.72;1744926;81;20277;-86
2021/07/02 07:00:51;;;;;;;;;;;;;;;19.03;76.12;98000.73;1750102;81;20218;-87
2021/07/02 07:03:17;;;;;;;;;;;;;;;19.05;76.08;98004.52;1747542;81;20981;-87
2021/07/02 07:05:43;;;;;;;;;;;;;;;19.06;76.01;97996.39;1751663;81;20305;-87
2021/07/02 07:08:09;;;;;;;;;;;;;;;19.10;76.00;98001.67;1743901;81;20249;-87
2021/07/02 07:10:36;;;;;;;;;;;;;;;19.13;75.99;98001.84;1747419;81;24908;-87
2021/07/02 07:13:03;;;;;;;;;;;;;;;19.13;75.99;97999.20;1743622;81;21953;-87
2021/07/02 07:15:29;;;;;;;;;;;;;;;19.14;76.00;98000.36;1749801;81;26060;-87
2021/07/02 07:17:55;;;;;;;;;;;;;;;19.15;75.99;98000.66;1745752;81;20268;-87
2021/07/02 07:20:21;;;;;;;;;;;;;;;19.18;76.00;97999.50;1739621;81;20291;-87
2021/07/02 07:22:47;;;;;;;;;;;;;;;19.20;76.02;97998.84;1747118;81;20242;-87
2021/07/02 07:25:14;;;;;;;;;;;;;;;19.27;76.04;97993.16;1761486;79;22049;-87
2021/07/02 07:27:41;;;;;;;;;;;;;;;19.32;76.04;97991.30;1745499;81;26036;-87
2021/07/02 07:30:08;;;;;;;;;;;;;;;19.40;76.05;97992.61;1750534;81;25232;-87
2021/07/02 07:32:36;;;;;;;;;;;;;;;19.46;76.07;97990.63;1747583;81;20163;-87
2021/07/02 07:35:05;;;;;;;;;;;;;;;19.46;76.05;97996.77;1748657;81;24836;-87
2021/07/02 07:37:33;;;;;;;;;;;;;;;19.53;75.97;97995.55;1748288;81;21979;-87
2021/07/02 07:39:57;;;;;;;;;;;;;;;19.57;75.91;97991.06;1746413;81;26124;-87
2021/07/02 07:42:23;;;;;;;;;;;;;;;19.62;75.82;97993.19;1745664;81;20242;-87
2021/07/02 07:44:50;;;;;;;;;;;;;;;19.60;75.71;97992.53;1744794;81;20301;-87
2021/07/02 07:47:16;;;;;;;;;;;;;;;19.62;75.58;97996.67;1743959;81;24301;-87
2021/07/02 07:49:44;;;;;;;;;;;;;;;19.65;75.45;97995.48;1742999;81;22060;-87
2021/07/02 07:54:42;;;;;;;;;;;;;;;19.69;75.28;98001.29;1748880;81;24457;-87
2021/07/02 07:57:08;;;;;;;;;;;;;;;19.78;75.23;97998.91;1744564;81;20652;-87
2021/07/02 07:59:35;;;;;;;;;;;;;;;19.83;75.16;98003.19;1750567;81;20368;-87
2021/07/02 08:02:01;;;;;;;;;;;;;;;19.86;75.04;98001.48;1744846;81;21953;-87
2021/07/02 08:04:27;;;;;;;;;;;;;;;19.91;74.94;98001.81;1746828;81;26029;-87
2021/07/02 08:06:53;;;;;;;;;;;;;;;19.83;74.79;97994.72;1718995;82;24155;-87
2021/07/02 08:09:20;;;;;;;;;;;;;;;19.82;74.67;98006.83;1766840;80;20285;-87
2021/07/02 08:11:46;;;;;;;;;;;;;;;19.89;74.62;98003.81;1724672;82;20565;-87
2021/07/02 08:14:12;;;;;;;;;;;;;;;19.92;74.52;98011.41;1767203;79;22588;-88
2021/07/02 08:16:39;;;;;;;;;;;;;;;19.93;74.43;98015.73;1765062;80;26820;-88
2021/07/02 08:19:05;;;;;;;;;;;;;;;19.97;74.36;98013.03;1764148;79;24395;-88
2021/07/02 08:21:31;;;;;;;;;;;;;;;20.00;74.18;98014.03;1761872;80;20235;-88
2021/07/02 08:23:57;;;;;;;;;;;;;;;19.99;74.05;98011.87;1763816;80;20506;-88
2021/07/02 08:26:25;;;;;;;;;;;;;;;20.03;73.96;98005.69;1740050;82;20376;-88
2021/07/02 08:31:35;;;;;;;;;;;;;;;20.11;73.77;98004.32;1754102;80;24489;-88
2021/07/02 08:34:04;;;;;;;;;;;;;;;20.06;73.62;98005.36;1753086;80;20885;-88
2021/07/02 08:36:29;;;;;;;;;;;;;;;20.05;73.53;98004.53;1764829;81;24823;-88
2021/07/02 08:38:55;;;;;;;;;;;;;;;20.13;73.47;98007.61;1764880;81;20240;-88
2021/07/02 08:41:21;;;;;;;;;;;;;;;20.19;73.46;98008.23;1768547;81;21017;-88
2021/07/02 08:43:48;;;;;;;;;;;;;;;20.19;73.43;98004.23;1762815;81;20319;-88
2021/07/02 08:46:20;;;;;;;;;;;;;;;20.19;73.35;98003.41;1766552;81;20587;-88
2021/07/02 08:48:47;;;;;;;;;;;;;;;20.13;73.23;98005.48;1767421;81;24778;-88
2021/07/02 08:51:13;;;;;;;;;;;;;;;20.09;73.15;98008.14;1763340;81;22181;-88
2021/07/02 08:53:39;;;;;;;;;;;;;;;20.15;73.10;98008.27;1762975;80;21007;-88
2021/07/02 08:56:06;;;;;;;;;;;;;;;20.23;73.06;98012.70;1765587;81;24452;-88
2021/07/02 08:58:33;;;;;;;;;;;;;;;20.30;73.04;98021.09;1764269;81;20243;-88
2021/07/02 09:00:59;;;;;;;;;;;;;;;20.27;72.96;98015.32;1764957;81;24859;-88
2021/07/02 09:03:27;;;;;;;;;;;;;;;20.24;72.84;98013.83;1763061;81;20271;-88
2021/07/02 09:05:53;;;;;;;;;;;;;;;20.29;72.81;98011.99;1764432;79;25940;-88
2021/07/02 09:08:20;;;;;;;;;;;;;;;20.32;72.83;98016.47;1765991;80;24521;-88
2021/07/02 09:10:46;;;;;;;;;;;;;;;20.36;72.74;98015.60;1763916;81;20550;-88
2021/07/02 09:13:13;;;;;;;;;;;;;;;20.39;72.67;98020.58;1764380;79;24798;-88
2021/07/02 09:15:44;;;;;;;;;;;;;;;20.45;72.61;98015.38;1762099;81;22089;-88
2021/07/02 09:18:13;;;;;;;;;;;;;;;20.52;72.54;98022.61;1763400;79;26193;-88
2021/07/02 09:20:40;;;;;;;;;;;;;;;20.61;72.47;98014.90;1766503;81;25237;-88
2021/07/02 09:23:07;;;;;;;;;;;;;;;20.69;72.41;98016.97;1763828;81;20239;-88
2021/07/02 09:25:47;;;;;;;;;;;;;;;20.77;72.31;98015.57;1761462;81;24744;-88
2021/07/02 09:28:12;;;;;;;;;;;;;;;20.84;72.24;98018.30;1740761;81;21971;-88
2021/07/02 09:30:39;;;;;;;;;;;;;;;20.92;72.16;98021.40;1763482;81;25956;-88
2021/07/02 09:33:07;;;;;;;;;;;;;;;21.00;72.11;98018.13;1763352;80;25327;-88
2021/07/02 09:35:35;;;;;;;;;;;;;;;21.10;72.06;98021.38;1762720;81;20303;-88
2021/07/02 09:38:03;;;;;;;;;;;;;;;21.20;72.02;98021.13;1763947;81;24709;-88
2021/07/02 09:40:30;;;;;;;;;;;;;;;21.30;71.96;98021.66;1761887;81;22120;-88
2021/07/02 09:43:04;;;;;;;;;;;;;;;21.34;71.86;98024.77;1768893;81;25986;-88
2021/07/02 09:45:30;;;;;;;;;;;;;;;21.37;71.71;98024.42;1765093;81;24437;-88
2021/07/02 09:47:59;;;;;;;;;;;;;;;21.40;71.57;98016.88;1763851;81;20181;-88
2021/07/02 09:50:26;;;;;;;;;;;;;;;21.44;71.41;98014.16;1762730;81;24734;-88
2021/07/02 09:52:54;;;;;;;;;;;;;;;21.49;71.24;98011.75;1727532;81;21846;-88
2021/07/02 09:55:21;;;;;;;;;;;;;;;21.49;71.06;98013.09;1754151;81;26797;-88
2021/07/02 09:57:47;;;;;;;;;;;;;;;21.54;70.89;98013.89;1754765;81;25597;-88
2021/07/02 10:00:15;;;;;;;;;;;;;;;21.54;70.72;98009.89;1754453;81;20790;-88
2021/07/02 10:02:55;;;;;;;;;;;;;;;21.56;70.62;98005.19;1754996;81;24689;-88
2021/07/02 10:05:21;;;;;;;;;;;;;;;21.54;70.50;98000.06;1754761;81;22231;-88
2021/07/02 10:07:51;;;;;;;;;;;;;;;21.51;70.34;98000.42;1754281;81;20638;-88
2021/07/02 10:10:17;;;;;;;;;;;;;;;21.48;70.19;97992.00;1754432;81;24462;-88
2021/07/02 10:12:43;;;;;;;;;;;;;;;21.49;70.07;97999.77;1755922;81;20171;-88
2021/07/02 10:15:09;;;;;;;;;;;;;;;21.45;69.93;97999.83;1754323;81;24834;-88
2021/07/02 10:17:35;;;;;;;;;;;;;;;21.44;69.81;98004.83;1754983;81;22032;-88
2021/07/02 10:20:01;;;;;;;;;;;;;;;21.37;69.70;98001.79;1755117;81;20944;-88
2021/07/02 10:22:28;;;;;;;;;;;;;;;21.34;69.62;98009.63;1755778;81;25520;-88
2021/07/02 10:24:54;;;;;;;;;;;;;;;21.24;69.50;98008.59;1756917;80;20165;-88
2021/07/02 10:27:21;;;;;;;;;;;;;;;21.23;69.36;98008.77;1755624;81;24759;-88
2021/07/02 10:29:47;;;;;;;;;;;;;;;21.24;69.34;98004.59;1755807;80;21956;-88
2021/07/02 10:32:14;;;;;;;;;;;;;;;21.23;69.30;97999.45;1755373;81;26033;-87
2021/07/02 10:34:40;;;;;;;;;;;;;;;21.28;69.25;98008.53;1755545;81;24484;-88
2021/07/02 10:37:06;;;;;;;;;;;;;;;21.29;69.19;98007.52;1754040;81;20631;-88
2021/07/02 10:39:35;;;;;;;;;;;;;;;21.32;69.10;98001.52;1756214;81;20749;-88
2021/07/02 10:42:08;;;;;;;;;;;;;;;21.36;69.02;98000.13;1754140;81;22607;-88
2021/07/02 10:44:55;;;;;;;;;;;;;;;21.39;68.93;98003.73;1756134;81;26016;-88
2021/07/02 10:47:24;;;;;;;;;;;;;;;21.42;68.85;98005.55;1750637;82;24405;-88
2021/07/02 10:49:54;;;;;;;;;;;;;;;21.46;68.75;98000.16;1746740;82;20207;-88
2021/07/02 10:52:27;;;;;;;;;;;;;;;21.55;68.71;97998.20;1745813;81;24781;-88
2021/07/02 10:54:57;;;;;;;;;;;;;;;21.62;68.69;97995.13;1751834;81;22004;-88
2021/07/02 10:57:24;;;;;;;;;;;;;;;21.73;68.67;97994.63;1743681;81;25959;-88
2021/07/02 10:59:56;;;;;;;;;;;;;;;21.88;68.64;97999.41;1741455;81;24496;-88
2021/07/02 11:02:21;;;;;;;;;;;;;;;21.98;68.55;97999.94;1743198;81;20299;-88
2021/07/02 11:04:49;;;;;;;;;;;;;;;22.06;68.46;98003.83;1749442;81;24454;-88
2021/07/02 11:07:18;;;;;;;;;;;;;;;22.17;68.33;98003.00;1752171;81;22033;-88
2021/07/02 11:09:46;;;;;;;;;;;;;;;22.24;68.20;97994.56;1745614;81;25986;-88
2021/07/02 11:12:12;;;;;;;;;;;;;;;22.29;68.12;97996.15;1738878;81;25334;-88
2021/07/02 11:14:55;;;;;;;;;;;;;;;22.35;68.01;97993.55;1750823;81;20233;-88
2021/07/02 11:17:31;;;;;;;;;;;;;;;22.39;67.88;97996.14;1740391;81;24909;-88
2021/07/02 11:20:09;;;;;;;;;;;;;;;22.43;67.69;97991.23;1742302;81;22021;-88
2021/07/02 11:22:46;;;;;;;;;;;;;;;22.48;67.53;97992.30;1745357;81;26894;-88
2021/07/02 11:25:19;;;;;;;;;;;;;;;22.46;67.22;97987.69;1743752;81;24496;-88
2021/07/02 11:27:51;;;;;;;;;;;;;;;22.50;67.00;97984.12;1715617;82;20179;-88
2021/07/02 11:30:22;;;;;;;;;;;;;;;22.52;66.84;97982.09;1741702;81;24826;-88
2021/07/02 11:32:50;;;;;;;;;;;;;;;22.50;66.59;97985.45;1749884;81;22064;-88
2021/07/02 11:35:17;;;;;;;;;;;;;;;22.47;66.39;97987.19;1747115;81;26054;-88
2021/07/02 11:38:01;;;;;;;;;;;;;;;22.45;66.23;97985.20;1748771;81;24379;-88
2021/07/02 11:40:31;;;;;;;;;;;;;;;22.44;66.04;97988.37;1743032;81;20463;-88
2021/07/02 11:42:58;;;;;;;;;;;;;;;22.46;65.93;97974.36;1748214;81;25682;-88
2021/07/02 11:45:40;;;;;;;;;;;;;;;22.53;65.87;97982.38;1748550;81;22730;-88
2021/07/02 11:48:08;;;;;;;;;;;;;;;22.65;65.89;97975.50;1749987;81;26034;-88
2021/07/02 11:50:38;;;;;;;;;;;;;;;22.77;65.90;97973.16;1742673;81;27008;-88
2021/07/02 11:53:04;;;;;;;;;;;;;;;22.83;65.78;97975.88;1743493;81;20471;-88
2021/07/02 11:55:30;;;;;;;;;;;;;;;22.89;65.61;97982.27;1742539;82;20737;-88
2021/07/02 11:58:15;;;;;;;;;;;;;;;22.93;65.57;97981.68;1737798;82;21968;-88
2021/07/02 12:00:41;;;;;;;;;;;;;;;22.96;65.45;97979.66;1740236;82;26209;-88
2021/07/02 12:03:07;;;;;;;;;;;;;;;22.94;65.22;97981.17;1740246;82;20288;-88
2021/07/02 12:05:33;;;;;;;;;;;;;;;22.96;65.02;97976.47;1738530;82;20519;-88
2021/07/02 12:07:59;;;;;;;;;;;;;;;22.98;64.83;97975.75;1738611;82;20749;-88
2021/07/02 12:10:25;;;;;;;;;;;;;;;22.95;64.53;97968.15;1740052;82;20806;-88
2021/07/02 12:12:53;;;;;;;;;;;;;;;22.94;64.29;97974.50;1743018;82;21023;-88
2021/07/02 12:15:25;;;;;;;;;;;;;;;22.96;64.02;97970.31;1739559;82;25267;-88
2021/07/02 12:17:52;;;;;;;;;;;;;;;23.01;63.87;97967.88;1741012;82;20239;-88
2021/07/02 12:20:20;;;;;;;;;;;;;;;23.00;63.61;97974.22;1736392;82;24674;-88
2021/07/02 12:22:46;;;;;;;;;;;;;;;22.98;63.42;97968.25;1740027;82;22885;-88
2021/07/02 12:25:14;;;;;;;;;;;;;;;22.96;63.24;97968.98;1740953;82;21118;-88
2021/07/02 12:27:40;;;;;;;;;;;;;;;22.89;63.01;97964.92;1738437;81;24535;-88
2021/07/02 12:30:06;;;;;;;;;;;;;;;22.88;62.87;97966.77;1737910;82;20298;-88
2021/07/02 12:32:35;;;;;;;;;;;;;;;22.91;62.78;97967.70;1741690;82;25521;-88
2021/07/02 12:35:02;;;;;;;;;;;;;;;22.89;62.63;97964.42;1741978;82;22017;-88
2021/07/02 12:37:28;;;;;;;;;;;;;;;22.93;62.57;97964.84;1742734;82;26025;-88
2021/07/02 12:39:55;;;;;;;;;;;;;;;22.94;62.52;97956.64;1737755;82;20797;-88
2021/07/02 12:42:32;;;;;;;;;;;;;;;23.03;62.57;97954.62;1741541;82;20296;-88
2021/07/02 12:44:58;;;;;;;;;;;;;;;23.06;62.51;97955.58;1743885;82;24722;-88
2021/07/02 12:47:24;;;;;;;;;;;;;;;23.07;62.36;97960.41;1746452;82;21988;-88
2021/07/02 12:49:57;;;;;;;;;;;;;;;23.11;62.25;97958.98;1740421;82;26042;-88
2021/07/02 12:54:59;;;;;;;;;;;;;;;23.14;62.00;97953.23;1739127;81;20255;-88